createdAt,value
2019-03-15T00:00:35.503Z,7.97
2019-03-15T00:05:37.944Z,8.18
2019-03-15T00:10:40.396Z,8.23
2019-03-15T00:15:42.848Z,8.17
2019-03-15T00:20:45.297Z,8.16
2019-03-15T00:25:47.746Z,8.19
2019-03-15T00:30:50.193Z,8.14
2019-03-15T00:35:52.642Z,8.20
2019-03-15T00:40:55.085Z,8.40
2019-03-15T00:45:57.537Z,8.54
2019-03-15T00:50:59.970Z,8.58
2019-03-15T00:56:02.455Z,8.63
2019-03-15T01:01:04.896Z,8.59
2019-03-15T01:06:07.346Z,8.41
2019-03-15T01:11:09.792Z,8.31
2019-03-15T01:16:12.269Z,8.25
2019-03-15T01:21:14.724Z,8.17
2019-03-15T01:26:17.170Z,8.13
2019-03-15T01:31:19.625Z,8.16
2019-03-15T01:36:22.078Z,8.27
2019-03-15T01:41:24.581Z,8.30
2019-03-15T01:46:27.021Z,8.30
2019-03-15T01:51:29.431Z,8.36
2019-03-15T01:56:31.974Z,8.50
2019-03-15T02:01:34.342Z,8.60
2019-03-15T02:06:36.788Z,8.63
2019-03-15T02:11:39.231Z,8.60
2019-03-15T02:16:41.672Z,8.62
2019-03-15T02:21:44.244Z,8.54
2019-03-15T02:26:46.690Z,8.53
2019-03-15T02:31:49.154Z,8.64
2019-03-15T02:36:51.601Z,8.73
2019-03-15T02:41:54.060Z,8.73
2019-03-15T02:46:56.511Z,8.64
2019-03-15T02:51:58.958Z,8.66
2019-03-15T02:57:01.414Z,8.67
2019-03-15T03:02:03.874Z,8.70
2019-03-15T03:07:06.326Z,8.71
2019-03-15T03:12:08.790Z,8.74
2019-03-15T03:17:11.243Z,8.77
2019-03-15T03:22:13.686Z,8.77
2019-03-15T03:27:16.136Z,8.80
2019-03-15T03:32:18.602Z,8.90
2019-03-15T03:37:21.049Z,8.96
2019-03-15T03:42:23.516Z,9.00
2019-03-15T03:47:25.944Z,9.06
2019-03-15T03:52:28.391Z,9.09
2019-03-15T03:57:30.839Z,9.12
2019-03-15T04:02:33.811Z,9.14
2019-03-15T04:07:35.749Z,9.12
2019-03-15T04:12:38.185Z,9.17
2019-03-15T04:17:40.715Z,9.19
2019-03-15T04:22:43.164Z,9.19
2019-03-15T04:27:45.618Z,9.21
2019-03-15T04:32:48.076Z,9.25
2019-03-15T04:37:50.525Z,9.26
2019-03-15T04:42:52.972Z,9.31
2019-03-15T04:47:55.416Z,9.37
2019-03-15T04:52:57.876Z,9.39
2019-03-15T04:58:00.326Z,9.39
2019-03-15T05:03:02.793Z,9.40
2019-03-15T05:08:05.240Z,9.39
2019-03-15T05:13:07.693Z,9.48
2019-03-15T05:18:10.163Z,9.47
2019-03-15T05:23:12.603Z,9.44
2019-03-15T05:28:15.086Z,9.46
2019-03-15T05:33:17.584Z,9.46
2019-03-15T05:38:20.056Z,9.45
2019-03-15T05:43:22.511Z,9.48
2019-03-15T05:48:24.968Z,9.51
2019-03-15T05:53:27.484Z,9.48
2019-03-15T05:58:30.120Z,9.48
2019-03-15T06:03:32.396Z,9.54
2019-03-15T06:08:34.864Z,9.57
2019-03-15T06:13:37.321Z,9.60
2019-03-15T06:18:39.789Z,9.60
2019-03-15T06:23:42.264Z,9.60
2019-03-15T06:28:44.727Z,9.63
2019-03-15T06:33:47.171Z,9.70
2019-03-15T06:38:49.637Z,9.66
2019-03-15T06:43:52.111Z,9.70
2019-03-15T06:48:55.093Z,9.75
2019-03-15T06:54:10.553Z,9.72
2019-03-15T06:58:59.462Z,9.73
2019-03-15T07:04:01.950Z,9.81
2019-03-15T07:09:04.386Z,9.81
2019-03-15T07:14:06.840Z,9.81
2019-03-15T07:19:09.422Z,9.86
2019-03-15T07:24:24.118Z,9.82
2019-03-15T07:29:14.345Z,9.85
2019-03-15T07:34:16.808Z,9.95
2019-03-15T07:39:19.264Z,9.89
2019-03-15T07:44:21.730Z,10.02
2019-03-15T07:49:24.218Z,10.05
2019-03-15T07:54:37.477Z,10.06
2019-03-15T07:59:29.241Z,10.07
2019-03-15T08:04:31.694Z,10.19
2019-03-15T08:09:34.158Z,10.24
2019-03-15T08:14:36.615Z,10.20
2019-03-15T08:19:39.070Z,10.32
2019-03-15T08:24:51.028Z,10.44
2019-03-15T08:29:44.029Z,10.50
2019-03-15T08:34:46.484Z,10.58
2019-03-15T08:39:48.936Z,10.57
2019-03-15T08:44:51.391Z,10.56
2019-03-15T08:49:53.854Z,10.58
2019-03-15T08:55:05.134Z,10.67
2019-03-15T08:59:58.777Z,10.60
2019-03-15T09:05:01.235Z,10.56
2019-03-15T09:10:03.899Z,10.60
2019-03-15T09:15:06.139Z,10.81
2019-03-15T09:20:11.527Z,11.02
2019-03-15T09:25:19.229Z,11.07
2019-03-15T09:30:23.815Z,11.08
2019-03-15T09:35:18.879Z,11.08
2019-03-15T09:40:21.348Z,11.22
2019-03-15T09:45:23.788Z,11.26
2019-03-15T09:50:36.039Z,11.44
2019-03-15T09:55:33.161Z,11.41
2019-03-15T10:00:31.331Z,11.32
2019-03-15T10:05:33.775Z,11.32
2019-03-15T10:10:36.728Z,11.33
2019-03-15T10:15:39.199Z,11.31
2019-03-15T10:20:41.645Z,11.35
2019-03-15T10:25:47.532Z,11.38
2019-03-15T10:30:46.578Z,11.42
2019-03-15T10:35:49.098Z,11.43
2019-03-15T10:40:51.510Z,11.46
2019-03-15T10:45:53.957Z,11.58
2019-03-15T10:50:56.407Z,11.74
2019-03-15T10:56:00.469Z,11.81
2019-03-15T11:01:01.318Z,11.89
2019-03-15T11:06:03.776Z,12.05
2019-03-15T11:11:06.255Z,12.09
2019-03-15T11:16:08.713Z,12.10
2019-03-15T11:21:11.170Z,12.14
2019-03-15T11:26:14.235Z,12.17
2019-03-15T11:31:16.978Z,12.20
2019-03-15T11:36:19.423Z,12.18
2019-03-15T11:41:21.875Z,12.27
2019-03-15T11:46:24.391Z,12.25
2019-03-15T11:51:26.848Z,12.35
2019-03-15T11:56:29.312Z,12.41
2019-03-15T12:01:31.775Z,12.46
2019-03-15T12:06:34.241Z,12.46
2019-03-15T12:11:36.704Z,12.54
2019-03-15T12:16:39.169Z,12.72
2019-03-15T12:21:41.634Z,12.65
2019-03-15T12:26:44.083Z,12.67
2019-03-15T12:31:46.577Z,12.65
2019-03-15T12:36:49.058Z,12.75
2019-03-15T12:41:51.548Z,12.72
2019-03-15T12:46:54.033Z,12.67
2019-03-15T12:51:56.503Z,12.74
2019-03-15T12:56:58.963Z,12.77
2019-03-15T13:02:01.401Z,12.89
2019-03-15T13:07:03.960Z,12.93
2019-03-15T13:12:06.359Z,12.92
2019-03-15T13:17:08.832Z,12.97
2019-03-15T13:22:11.277Z,13.03
2019-03-15T13:27:13.745Z,13.11
2019-03-15T13:32:16.226Z,13.07
2019-03-15T13:37:18.681Z,13.02
2019-03-15T13:42:21.142Z,13.03
2019-03-15T13:47:23.596Z,13.06
2019-03-15T13:52:26.131Z,13.04
2019-03-15T13:57:28.525Z,13.07
2019-03-15T14:02:30.983Z,13.09
2019-03-15T14:07:33.433Z,13.06
2019-03-15T14:12:35.887Z,13.05
2019-03-15T14:17:38.344Z,13.11
2019-03-15T14:22:40.869Z,13.12
2019-03-15T14:27:43.263Z,13.11
2019-03-15T14:32:45.701Z,13.18
2019-03-15T14:37:48.175Z,13.14
2019-03-15T14:42:50.876Z,13.28
2019-03-15T14:47:53.186Z,13.14
2019-03-15T14:52:55.692Z,13.15
2019-03-15T14:58:00.185Z,13.08
2019-03-15T15:03:00.703Z,13.05
2019-03-15T15:08:03.172Z,13.05
2019-03-15T15:13:05.649Z,13.06
2019-03-15T15:18:08.083Z,13.03
2019-03-15T15:23:10.557Z,13.00
2019-03-15T15:28:13.030Z,12.98
2019-03-15T15:33:15.504Z,12.93
2019-03-15T15:38:17.982Z,12.93
2019-03-15T15:43:20.448Z,12.95
2019-03-15T15:48:22.944Z,12.91
2019-03-15T15:53:25.394Z,12.83
2019-03-15T15:58:27.825Z,12.80
2019-03-15T16:03:30.302Z,12.78
2019-03-15T16:08:32.784Z,12.80
2019-03-15T16:13:35.225Z,12.76
2019-03-15T16:18:37.832Z,12.76
2019-03-15T16:23:40.204Z,12.74
2019-03-15T16:28:42.651Z,12.71
2019-03-15T16:33:45.115Z,12.70
2019-03-15T16:38:47.591Z,12.67
2019-03-15T16:43:50.062Z,12.65
2019-03-15T16:48:52.535Z,12.62
2019-03-15T16:53:55.028Z,12.60
2019-03-15T16:58:57.478Z,12.59
2019-03-15T17:03:59.940Z,12.57
2019-03-15T17:09:02.516Z,12.57
2019-03-15T17:14:05.006Z,12.61
2019-03-15T17:19:07.442Z,12.59
2019-03-15T17:24:09.892Z,12.55
2019-03-15T17:29:12.353Z,12.54
2019-03-15T17:34:14.808Z,12.54
2019-03-15T17:39:17.273Z,12.54
2019-03-15T17:44:19.735Z,12.52
2019-03-15T17:49:22.199Z,12.52
2019-03-15T17:54:24.648Z,12.53
2019-03-15T17:59:27.133Z,12.53
2019-03-15T18:04:29.613Z,12.56
2019-03-15T18:09:32.077Z,12.55
2019-03-15T18:14:34.534Z,12.58
2019-03-15T18:19:36.989Z,12.59
2019-03-15T18:24:39.443Z,12.57
2019-03-15T18:29:41.914Z,12.53
2019-03-15T18:34:44.397Z,12.56
2019-03-15T18:39:46.890Z,12.59
2019-03-15T18:44:49.361Z,12.61
2019-03-15T18:49:51.825Z,12.59
2019-03-15T18:54:54.280Z,12.61
2019-03-15T18:59:56.755Z,12.58
2019-03-15T19:04:59.205Z,12.60
2019-03-15T19:10:01.680Z,12.59
2019-03-15T19:15:04.145Z,12.63
2019-03-15T19:20:06.631Z,12.62
2019-03-15T19:25:09.195Z,12.60
2019-03-15T19:30:14.633Z,12.63
2019-03-15T19:35:17.112Z,12.59
2019-03-15T19:40:19.580Z,12.58
2019-03-15T19:45:22.056Z,12.62
2019-03-15T19:50:24.514Z,12.59
2019-03-15T19:55:26.979Z,12.57
2019-03-15T20:00:29.449Z,12.57
2019-03-15T20:05:31.912Z,12.57
2019-03-15T20:10:34.396Z,12.60
2019-03-15T20:15:36.871Z,12.58
2019-03-15T20:20:39.386Z,12.61
2019-03-15T20:25:41.886Z,12.64
2019-03-15T20:30:51.763Z,12.63
2019-03-15T20:35:46.862Z,12.64
2019-03-15T20:40:49.327Z,12.64
2019-03-15T20:45:51.827Z,12.65
2019-03-15T20:50:54.305Z,12.64
2019-03-15T20:55:56.827Z,12.66
2019-03-15T21:00:59.510Z,12.66
2019-03-15T21:06:02.222Z,12.67
2019-03-15T21:11:04.689Z,12.65
2019-03-15T21:16:07.152Z,12.64
2019-03-15T21:21:09.612Z,12.67
2019-03-15T21:26:12.221Z,12.68
2019-03-15T21:31:14.693Z,12.71
2019-03-15T21:36:17.169Z,12.71
2019-03-15T21:41:19.633Z,12.72
2019-03-15T21:46:22.097Z,12.72
2019-03-15T21:51:24.601Z,12.72
2019-03-15T21:56:27.085Z,12.72
2019-03-15T22:01:29.649Z,12.71
2019-03-15T22:06:32.045Z,12.72
2019-03-15T22:11:34.505Z,12.71
2019-03-15T22:16:36.991Z,12.70
2019-03-15T22:21:39.463Z,12.69
2019-03-15T22:26:41.944Z,12.67
2019-03-15T22:31:44.461Z,12.67
2019-03-15T22:36:46.948Z,12.66
2019-03-15T22:41:49.406Z,12.63
2019-03-15T22:46:51.872Z,12.64
2019-03-15T22:51:54.345Z,12.62
2019-03-15T22:56:56.840Z,12.63
2019-03-15T23:01:59.363Z,12.64
2019-03-15T23:07:01.839Z,12.61
2019-03-15T23:12:04.301Z,12.61
2019-03-15T23:17:06.780Z,12.57
2019-03-15T23:22:09.244Z,12.58
2019-03-15T23:27:11.724Z,12.58
2019-03-15T23:32:14.192Z,12.57
2019-03-15T23:37:16.661Z,12.57
2019-03-15T23:42:19.401Z,12.57
2019-03-15T23:47:21.842Z,12.56
2019-03-15T23:52:24.313Z,12.54
2019-03-15T23:57:26.797Z,12.49
